sensor_id;sensor_type;location;lat;lon;timestamp;P1;durP1;ratioP1;P2;durP2;ratioP2
2039;SDS011;1025;42.686;23.350;2023-02-11T00:00:19;6.80;;;6.20;;
2039;SDS011;1025;42.686;23.350;2023-02-11T00:02:47;7.83;;;7.23;;
2039;SDS011;1025;42.686;23.350;2023-02-11T00:05:14;8.70;;;7.90;;
2039;SDS011;1025;42.686;23.350;2023-02-11T00:07:40;6.80;;;6.30;;
2039;SDS011;1025;42.686;23.350;2023-02-11T00:10:07;8.33;;;7.53;;
2039;SDS011;1025;42.686;23.350;2023-02-11T00:12:34;8.33;;;7.60;;
2039;SDS011;1025;42.686;23.350;2023-02-11T00:15:00;7.97;;;7.00;;
2039;SDS011;1025;42.686;23.350;2023-02-11T00:17:27;7.57;;;6.93;;
2039;SDS011;1025;42.686;23.350;2023-02-11T00:19:55;6.33;;;5.83;;
2039;SDS011;1025;42.686;23.350;2023-02-11T00:22:21;10.73;;;5.80;;
2039;SDS011;1025;42.686;23.350;2023-02-11T00:24:48;7.33;;;6.73;;
2039;SDS011;1025;42.686;23.350;2023-02-11T00:27:14;10.90;;;7.30;;
2039;SDS011;1025;42.686;23.350;2023-02-11T00:29:41;8.63;;;6.60;;
2039;SDS011;1025;42.686;23.350;2023-02-11T00:32:08;6.23;;;5.73;;
2039;SDS011;1025;42.686;23.350;2023-02-11T00:34:35;8.73;;;7.10;;
2039;SDS011;1025;42.686;23.350;2023-02-11T00:37:03;8.23;;;7.40;;
2039;SDS011;1025;42.686;23.350;2023-02-11T00:39:30;6.67;;;6.07;;
2039;SDS011;1025;42.686;23.350;2023-02-11T00:41:56;13.73;;;8.10;;
2039;SDS011;1025;42.686;23.350;2023-02-11T00:44:23;6.10;;;5.40;;
2039;SDS011;1025;42.686;23.350;2023-02-11T00:46:49;8.90;;;6.30;;
2039;SDS011;1025;42.686;23.350;2023-02-11T00:49:16;5.30;;;4.97;;
2039;SDS011;1025;42.686;23.350;2023-02-11T00:51:42;6.77;;;6.23;;
2039;SDS011;1025;42.686;23.350;2023-02-11T00:54:10;7.33;;;6.30;;
2039;SDS011;1025;42.686;23.350;2023-02-11T00:56:37;8.98;;;6.55;;
2039;SDS011;1025;42.686;23.350;2023-02-11T00:59:03;7.03;;;6.43;;
2039;SDS011;1025;42.686;23.350;2023-02-11T01:01:30;7.20;;;6.70;;
2039;SDS011;1025;42.686;23.350;2023-02-11T01:03:57;6.37;;;5.47;;
2039;SDS011;1025;42.686;23.350;2023-02-11T01:06:23;6.17;;;5.67;;
2039;SDS011;1025;42.686;23.350;2023-02-11T01:08:50;5.70;;;5.37;;
2039;SDS011;1025;42.686;23.350;2023-02-11T01:11:19;9.23;;;7.30;;
2039;SDS011;1025;42.686;23.350;2023-02-11T01:13:46;9.80;;;7.13;;
2039;SDS011;1025;42.686;23.350;2023-02-11T01:16:12;6.70;;;6.20;;
2039;SDS011;1025;42.686;23.350;2023-02-11T01:18:39;8.73;;;6.10;;
2039;SDS011;1025;42.686;23.350;2023-02-11T01:21:08;9.13;;;8.40;;
2039;SDS011;1025;42.686;23.350;2023-02-11T01:23:34;6.90;;;6.30;;
2039;SDS011;1025;42.686;23.350;2023-02-11T01:26:01;6.33;;;5.93;;
2039;SDS011;1025;42.686;23.350;2023-02-11T01:28:29;6.27;;;5.87;;
2039;SDS011;1025;42.686;23.350;2023-02-11T01:30:56;6.60;;;6.10;;
2039;SDS011;1025;42.686;23.350;2023-02-11T01:33:22;8.60;;;5.87;;
2039;SDS011;1025;42.686;23.350;2023-02-11T01:35:49;5.90;;;5.47;;
2039;SDS011;1025;42.686;23.350;2023-02-11T01:38:16;6.23;;;5.83;;
2039;SDS011;1025;42.686;23.350;2023-02-11T01:40:46;7.17;;;6.20;;
2039;SDS011;1025;42.686;23.350;2023-02-11T01:43:13;5.40;;;5.07;;
2039;SDS011;1025;42.686;23.350;2023-02-11T01:45:59;6.43;;;5.93;;
2039;SDS011;1025;42.686;23.350;2023-02-11T01:48:27;7.30;;;6.40;;
2039;SDS011;1025;42.686;23.350;2023-02-11T01:50:56;13.10;;;6.40;;
2039;SDS011;1025;42.686;23.350;2023-02-11T01:53:24;7.80;;;7.20;;
2039;SDS011;1025;42.686;23.350;2023-02-11T01:56:08;9.30;;;7.07;;
2039;SDS011;1025;42.686;23.350;2023-02-11T01:58:52;7.23;;;6.63;;
2039;SDS011;1025;42.686;23.350;2023-02-11T02:01:22;8.20;;;7.10;;
2039;SDS011;1025;42.686;23.350;2023-02-11T02:03:50;10.32;;;7.47;;
2039;SDS011;1025;42.686;23.350;2023-02-11T02:06:21;11.07;;;7.57;;
2039;SDS011;1025;42.686;23.350;2023-02-11T02:08:50;6.97;;;6.37;;
2039;SDS011;1025;42.686;23.350;2023-02-11T02:11:18;7.50;;;6.63;;
2039;SDS011;1025;42.686;23.350;2023-02-11T02:13:45;8.87;;;7.97;;
2039;SDS011;1025;42.686;23.350;2023-02-11T02:16:12;9.40;;;7.70;;
2039;SDS011;1025;42.686;23.350;2023-02-11T02:18:42;8.10;;;7.17;;
2039;SDS011;1025;42.686;23.350;2023-02-11T02:21:20;6.70;;;6.20;;
2039;SDS011;1025;42.686;23.350;2023-02-11T02:23:50;7.07;;;6.57;;
2039;SDS011;1025;42.686;23.350;2023-02-11T02:31:52;7.43;;;6.77;;
2039;SDS011;1025;42.686;23.350;2023-02-11T02:34:23;10.77;;;8.37;;
2039;SDS011;1025;42.686;23.350;2023-02-11T02:36:54;8.60;;;7.90;;
2039;SDS011;1025;42.686;23.350;2023-02-11T02:39:23;10.60;;;8.80;;
2039;SDS011;1025;42.686;23.350;2023-02-11T02:41:50;8.67;;;7.87;;
2039;SDS011;1025;42.686;23.350;2023-02-11T02:44:18;7.47;;;6.83;;
2039;SDS011;1025;42.686;23.350;2023-02-11T02:46:45;11.03;;;7.63;;
2039;SDS011;1025;42.686;23.350;2023-02-11T02:49:11;7.30;;;6.67;;
2039;SDS011;1025;42.686;23.350;2023-02-11T02:51:46;8.52;;;7.82;;
2039;SDS011;1025;42.686;23.350;2023-02-11T02:54:22;9.77;;;7.53;;
2039;SDS011;1025;42.686;23.350;2023-02-11T02:56:50;7.83;;;6.37;;
2039;SDS011;1025;42.686;23.350;2023-02-11T02:59:23;7.53;;;6.90;;
2039;SDS011;1025;42.686;23.350;2023-02-11T03:01:54;10.03;;;7.67;;
2039;SDS011;1025;42.686;23.350;2023-02-11T03:04:25;8.03;;;6.53;;
2039;SDS011;1025;42.686;23.350;2023-02-11T03:06:56;13.47;;;7.07;;
2039;SDS011;1025;42.686;23.350;2023-02-11T03:09:27;9.37;;;8.33;;
2039;SDS011;1025;42.686;23.350;2023-02-11T03:11:55;8.43;;;7.50;;
2039;SDS011;1025;42.686;23.350;2023-02-11T03:14:21;9.25;;;8.55;;
2039;SDS011;1025;42.686;23.350;2023-02-11T03:16:51;9.32;;;8.48;;
2039;SDS011;1025;42.686;23.350;2023-02-11T03:19:20;11.73;;;10.50;;
2039;SDS011;1025;42.686;23.350;2023-02-11T03:21:48;9.18;;;8.40;;
2039;SDS011;1025;42.686;23.350;2023-02-11T03:24:19;12.17;;;10.30;;
2039;SDS011;1025;42.686;23.350;2023-02-11T03:26:47;10.65;;;9.65;;
2039;SDS011;1025;42.686;23.350;2023-02-11T03:29:15;10.60;;;9.60;;
2039;SDS011;1025;42.686;23.350;2023-02-11T03:31:46;8.18;;;7.47;;
2039;SDS011;1025;42.686;23.350;2023-02-11T03:34:18;18.98;;;10.23;;
2039;SDS011;1025;42.686;23.350;2023-02-11T03:36:47;9.13;;;8.33;;
2039;SDS011;1025;42.686;23.350;2023-02-11T03:39:18;11.43;;;9.50;;
2039;SDS011;1025;42.686;23.350;2023-02-11T03:41:46;13.60;;;9.95;;
2039;SDS011;1025;42.686;23.350;2023-02-11T03:44:14;11.65;;;9.20;;
2039;SDS011;1025;42.686;23.350;2023-02-11T03:46:41;13.57;;;9.43;;
2039;SDS011;1025;42.686;23.350;2023-02-11T03:49:10;8.73;;;7.93;;
2039;SDS011;1025;42.686;23.350;2023-02-11T03:51:38;11.32;;;8.90;;
2039;SDS011;1025;42.686;23.350;2023-02-11T03:54:08;9.75;;;8.77;;
2039;SDS011;1025;42.686;23.350;2023-02-11T03:56:39;9.30;;;8.37;;
2039;SDS011;1025;42.686;23.350;2023-02-11T03:59:07;8.82;;;8.02;;
2039;SDS011;1025;42.686;23.350;2023-02-11T04:01:33;9.93;;;8.80;;
2039;SDS011;1025;42.686;23.350;2023-02-11T04:04:00;15.35;;;9.50;;
2039;SDS011;1025;42.686;23.350;2023-02-11T04:06:26;7.30;;;6.73;;
2039;SDS011;1025;42.686;23.350;2023-02-11T04:08:53;12.93;;;9.38;;
2039;SDS011;1025;42.686;23.350;2023-02-11T04:11:19;7.20;;;6.53;;
2039;SDS011;1025;42.686;23.350;2023-02-11T04:13:47;8.52;;;7.93;;
2039;SDS011;1025;42.686;23.350;2023-02-11T04:16:14;7.47;;;6.97;;
2039;SDS011;1025;42.686;23.350;2023-02-11T04:18:40;9.00;;;8.20;;
2039;SDS011;1025;42.686;23.350;2023-02-11T04:21:07;9.65;;;8.90;;
2039;SDS011;1025;42.686;23.350;2023-02-11T04:23:34;12.73;;;10.68;;
2039;SDS011;1025;42.686;23.350;2023-02-11T04:26:00;10.23;;;9.33;;
2039;SDS011;1025;42.686;23.350;2023-02-11T04:28:27;8.52;;;7.85;;
2039;SDS011;1025;42.686;23.350;2023-02-11T04:30:56;10.77;;;9.52;;
2039;SDS011;1025;42.686;23.350;2023-02-11T04:33:23;12.07;;;9.80;;
2039;SDS011;1025;42.686;23.350;2023-02-11T04:35:50;12.80;;;11.68;;
2039;SDS011;1025;42.686;23.350;2023-02-11T04:38:16;17.03;;;11.80;;
2039;SDS011;1025;42.686;23.350;2023-02-11T04:40:43;12.73;;;10.05;;
2039;SDS011;1025;42.686;23.350;2023-02-11T04:43:09;9.33;;;8.43;;
2039;SDS011;1025;42.686;23.350;2023-02-11T04:45:36;7.65;;;7.05;;
2039;SDS011;1025;42.686;23.350;2023-02-11T04:48:04;14.00;;;11.10;;
2039;SDS011;1025;42.686;23.350;2023-02-11T04:50:31;10.97;;;10.13;;
2039;SDS011;1025;42.686;23.350;2023-02-11T04:52:58;13.32;;;12.07;;
2039;SDS011;1025;42.686;23.350;2023-02-11T04:55:24;11.98;;;9.95;;
2039;SDS011;1025;42.686;23.350;2023-02-11T04:57:51;15.80;;;10.68;;
2039;SDS011;1025;42.686;23.350;2023-02-11T05:00:17;20.30;;;11.20;;
2039;SDS011;1025;42.686;23.350;2023-02-11T05:02:44;14.07;;;12.00;;
2039;SDS011;1025;42.686;23.350;2023-02-11T05:05:12;14.27;;;11.20;;
2039;SDS011;1025;42.686;23.350;2023-02-11T05:07:38;19.65;;;11.55;;
2039;SDS011;1025;42.686;23.350;2023-02-11T05:10:05;14.50;;;12.77;;
2039;SDS011;1025;42.686;23.350;2023-02-11T05:12:32;16.60;;;11.57;;
2039;SDS011;1025;42.686;23.350;2023-02-11T05:14:58;10.43;;;9.17;;
2039;SDS011;1025;42.686;23.350;2023-02-11T05:17:25;12.02;;;10.05;;
2039;SDS011;1025;42.686;23.350;2023-02-11T05:19:51;13.55;;;9.93;;
2039;SDS011;1025;42.686;23.350;2023-02-11T05:22:19;10.05;;;9.15;;
2039;SDS011;1025;42.686;23.350;2023-02-11T05:24:46;9.98;;;9.13;;
2039;SDS011;1025;42.686;23.350;2023-02-11T05:27:13;13.43;;;9.80;;
2039;SDS011;1025;42.686;23.350;2023-02-11T05:29:39;13.80;;;10.43;;
2039;SDS011;1025;42.686;23.350;2023-02-11T05:32:06;10.75;;;9.73;;
2039;SDS011;1025;42.686;23.350;2023-02-11T05:34:33;14.68;;;9.52;;
2039;SDS011;1025;42.686;23.350;2023-02-11T05:36:59;12.00;;;10.80;;
2039;SDS011;1025;42.686;23.350;2023-02-11T05:39:27;14.32;;;10.75;;
2039;SDS011;1025;42.686;23.350;2023-02-11T05:41:54;10.25;;;8.70;;
2039;SDS011;1025;42.686;23.350;2023-02-11T05:44:20;11.30;;;7.95;;
2039;SDS011;1025;42.686;23.350;2023-02-11T05:46:47;9.13;;;7.97;;
2039;SDS011;1025;42.686;23.350;2023-02-11T05:49:15;8.65;;;7.50;;
2039;SDS011;1025;42.686;23.350;2023-02-11T05:51:41;7.95;;;6.72;;
2039;SDS011;1025;42.686;23.350;2023-02-11T05:54:08;8.93;;;8.07;;
2039;SDS011;1025;42.686;23.350;2023-02-11T05:56:36;8.35;;;7.40;;
2039;SDS011;1025;42.686;23.350;2023-02-11T05:59:03;9.13;;;8.27;;
2039;SDS011;1025;42.686;23.350;2023-02-11T06:01:29;7.60;;;7.07;;
2039;SDS011;1025;42.686;23.350;2023-02-11T06:03:56;10.32;;;8.70;;
2039;SDS011;1025;42.686;23.350;2023-02-11T06:06:23;8.43;;;7.72;;
2039;SDS011;1025;42.686;23.350;2023-02-11T06:08:56;7.78;;;6.07;;
2039;SDS011;1025;42.686;23.350;2023-02-11T06:11:23;12.15;;;8.95;;
2039;SDS011;1025;42.686;23.350;2023-02-11T06:13:51;7.57;;;6.85;;
2039;SDS011;1025;42.686;23.350;2023-02-11T06:16:20;8.68;;;7.80;;
2039;SDS011;1025;42.686;23.350;2023-02-11T06:18:47;10.63;;;7.70;;
2039;SDS011;1025;42.686;23.350;2023-02-11T06:21:14;12.30;;;8.50;;
2039;SDS011;1025;42.686;23.350;2023-02-11T06:23:41;10.53;;;8.47;;
2039;SDS011;1025;42.686;23.350;2023-02-11T06:26:09;8.12;;;6.90;;
2039;SDS011;1025;42.686;23.350;2023-02-11T06:28:40;8.00;;;7.25;;
2039;SDS011;1025;42.686;23.350;2023-02-11T06:31:08;10.45;;;8.80;;
2039;SDS011;1025;42.686;23.350;2023-02-11T06:33:36;7.90;;;7.10;;
2039;SDS011;1025;42.686;23.350;2023-02-11T06:36:03;8.07;;;6.43;;
2039;SDS011;1025;42.686;23.350;2023-02-11T06:38:30;8.35;;;7.30;;
2039;SDS011;1025;42.686;23.350;2023-02-11T06:40:56;10.27;;;9.43;;
2039;SDS011;1025;42.686;23.350;2023-02-11T06:43:23;12.38;;;9.45;;
2039;SDS011;1025;42.686;23.350;2023-02-11T06:45:51;9.30;;;8.37;;
2039;SDS011;1025;42.686;23.350;2023-02-11T06:48:19;12.18;;;8.55;;
2039;SDS011;1025;42.686;23.350;2023-02-11T06:50:46;8.03;;;6.50;;
2039;SDS011;1025;42.686;23.350;2023-02-11T06:53:13;11.95;;;8.82;;
2039;SDS011;1025;42.686;23.350;2023-02-11T06:55:39;11.73;;;9.97;;
2039;SDS011;1025;42.686;23.350;2023-02-11T06:58:06;7.90;;;7.23;;
2039;SDS011;1025;42.686;23.350;2023-02-11T07:00:32;18.20;;;10.50;;
2039;SDS011;1025;42.686;23.350;2023-02-11T07:02:59;11.03;;;10.03;;
2039;SDS011;1025;42.686;23.350;2023-02-11T07:05:27;15.50;;;10.53;;
2039;SDS011;1025;42.686;23.350;2023-02-11T07:07:53;13.97;;;11.30;;
2039;SDS011;1025;42.686;23.350;2023-02-11T07:10:20;11.53;;;10.40;;
2039;SDS011;1025;42.686;23.350;2023-02-11T07:12:46;13.60;;;9.03;;
2039;SDS011;1025;42.686;23.350;2023-02-11T07:15:13;13.13;;;9.77;;
2039;SDS011;1025;42.686;23.350;2023-02-11T07:17:40;11.27;;;10.30;;
2039;SDS011;1025;42.686;23.350;2023-02-11T07:20:06;11.90;;;10.63;;
2039;SDS011;1025;42.686;23.350;2023-02-11T07:22:35;11.13;;;10.03;;
2039;SDS011;1025;42.686;23.350;2023-02-11T07:25:01;13.77;;;10.10;;
2039;SDS011;1025;42.686;23.350;2023-02-11T07:27:28;8.87;;;7.43;;
2039;SDS011;1025;42.686;23.350;2023-02-11T07:29:55;19.33;;;11.07;;
2039;SDS011;1025;42.686;23.350;2023-02-11T07:32:22;10.20;;;9.27;;
2039;SDS011;1025;42.686;23.350;2023-02-11T07:34:48;14.03;;;11.20;;
2039;SDS011;1025;42.686;23.350;2023-02-11T07:37:15;14.17;;;10.10;;
2039;SDS011;1025;42.686;23.350;2023-02-11T07:39:43;10.63;;;9.67;;
2039;SDS011;1025;42.686;23.350;2023-02-11T07:42:09;13.80;;;10.23;;
2039;SDS011;1025;42.686;23.350;2023-02-11T07:44:37;11.40;;;10.13;;
2039;SDS011;1025;42.686;23.350;2023-02-11T07:47:03;10.30;;;9.40;;
2039;SDS011;1025;42.686;23.350;2023-02-11T07:49:30;19.23;;;10.00;;
2039;SDS011;1025;42.686;23.350;2023-02-11T07:51:57;10.43;;;9.63;;
2039;SDS011;1025;42.686;23.350;2023-02-11T07:54:23;16.03;;;11.13;;
2039;SDS011;1025;42.686;23.350;2023-02-11T07:56:51;10.27;;;9.20;;
2039;SDS011;1025;42.686;23.350;2023-02-11T07:59:18;12.17;;;11.07;;
2039;SDS011;1025;42.686;23.350;2023-02-11T08:01:44;10.33;;;9.43;;
2039;SDS011;1025;42.686;23.350;2023-02-11T08:04:11;10.40;;;9.60;;
2039;SDS011;1025;42.686;23.350;2023-02-11T08:06:39;10.47;;;9.57;;
2039;SDS011;1025;42.686;23.350;2023-02-11T08:09:07;11.87;;;10.73;;
2039;SDS011;1025;42.686;23.350;2023-02-11T08:11:34;12.47;;;10.73;;
2039;SDS011;1025;42.686;23.350;2023-02-11T08:14:02;13.87;;;9.97;;
2039;SDS011;1025;42.686;23.350;2023-02-11T08:16:30;17.47;;;10.97;;
2039;SDS011;1025;42.686;23.350;2023-02-11T08:18:58;15.27;;;12.30;;
2039;SDS011;1025;42.686;23.350;2023-02-11T08:21:24;20.50;;;12.70;;
2039;SDS011;1025;42.686;23.350;2023-02-11T08:23:51;9.13;;;8.37;;
2039;SDS011;1025;42.686;23.350;2023-02-11T08:26:18;11.67;;;10.60;;
2039;SDS011;1025;42.686;23.350;2023-02-11T08:28:46;12.77;;;11.60;;
2039;SDS011;1025;42.686;23.350;2023-02-11T08:31:15;11.33;;;10.30;;
2039;SDS011;1025;42.686;23.350;2023-02-11T08:33:42;14.13;;;12.73;;
2039;SDS011;1025;42.686;23.350;2023-02-11T08:36:08;15.07;;;13.77;;
2039;SDS011;1025;42.686;23.350;2023-02-11T08:38:35;11.93;;;10.73;;
2039;SDS011;1025;42.686;23.350;2023-02-11T08:41:02;17.50;;;12.00;;
2039;SDS011;1025;42.686;23.350;2023-02-11T08:43:29;17.57;;;12.37;;
2039;SDS011;1025;42.686;23.350;2023-02-11T08:45:57;21.07;;;12.40;;
2039;SDS011;1025;42.686;23.350;2023-02-11T08:48:25;13.40;;;10.47;;
2039;SDS011;1025;42.686;23.350;2023-02-11T08:50:52;12.67;;;11.67;;
2039;SDS011;1025;42.686;23.350;2023-02-11T08:53:19;14.00;;;12.63;;
2039;SDS011;1025;42.686;23.350;2023-02-11T08:55:49;12.30;;;11.20;;
2039;SDS011;1025;42.686;23.350;2023-02-11T08:58:16;13.60;;;12.27;;
2039;SDS011;1025;42.686;23.350;2023-02-11T09:00:42;11.13;;;9.63;;
2039;SDS011;1025;42.686;23.350;2023-02-11T09:03:09;9.40;;;8.60;;
2039;SDS011;1025;42.686;23.350;2023-02-11T09:05:40;11.30;;;10.10;;
2039;SDS011;1025;42.686;23.350;2023-02-11T09:08:10;16.33;;;11.17;;
2039;SDS011;1025;42.686;23.350;2023-02-11T09:10:37;16.83;;;12.27;;
2039;SDS011;1025;42.686;23.350;2023-02-11T09:13:03;11.77;;;10.60;;
2039;SDS011;1025;42.686;23.350;2023-02-11T09:15:30;15.40;;;10.63;;
2039;SDS011;1025;42.686;23.350;2023-02-11T09:17:56;20.70;;;13.13;;
2039;SDS011;1025;42.686;23.350;2023-02-11T09:20:23;10.23;;;9.47;;
2039;SDS011;1025;42.686;23.350;2023-02-11T09:22:52;15.63;;;10.27;;
2039;SDS011;1025;42.686;23.350;2023-02-11T09:25:19;12.13;;;10.93;;
2039;SDS011;1025;42.686;23.350;2023-02-11T09:27:46;10.73;;;9.93;;
2039;SDS011;1025;42.686;23.350;2023-02-11T09:30:12;11.90;;;10.97;;
2039;SDS011;1025;42.686;23.350;2023-02-11T09:32:39;13.27;;;11.77;;
2039;SDS011;1025;42.686;23.350;2023-02-11T09:35:06;19.73;;;12.77;;
2039;SDS011;1025;42.686;23.350;2023-02-11T09:37:33;9.93;;;9.17;;
2039;SDS011;1025;42.686;23.350;2023-02-11T09:40:00;11.77;;;10.00;;
2039;SDS011;1025;42.686;23.350;2023-02-11T09:42:37;12.70;;;11.60;;
2039;SDS011;1025;42.686;23.350;2023-02-11T09:45:09;8.70;;;7.80;;
2039;SDS011;1025;42.686;23.350;2023-02-11T09:47:38;11.43;;;10.63;;
2039;SDS011;1025;42.686;23.350;2023-02-11T09:50:10;8.83;;;7.97;;
2039;SDS011;1025;42.686;23.350;2023-02-11T09:52:39;13.83;;;10.20;;
2039;SDS011;1025;42.686;23.350;2023-02-11T09:55:13;9.70;;;8.77;;
2039;SDS011;1025;42.686;23.350;2023-02-11T09:57:40;8.33;;;7.53;;
2039;SDS011;1025;42.686;23.350;2023-02-11T10:00:15;10.57;;;9.50;;
2039;SDS011;1025;42.686;23.350;2023-02-11T10:02:45;9.10;;;8.17;;
2039;SDS011;1025;42.686;23.350;2023-02-11T10:05:20;9.13;;;8.30;;
2039;SDS011;1025;42.686;23.350;2023-02-11T10:07:50;8.70;;;7.93;;
2039;SDS011;1025;42.686;23.350;2023-02-11T10:10:25;18.77;;;10.67;;
2039;SDS011;1025;42.686;23.350;2023-02-11T10:13:00;8.57;;;7.53;;
2039;SDS011;1025;42.686;23.350;2023-02-11T10:15:30;10.23;;;8.80;;
2039;SDS011;1025;42.686;23.350;2023-02-11T10:20:43;20.27;;;10.10;;
2039;SDS011;1025;42.686;23.350;2023-02-11T10:23:14;8.07;;;7.10;;
2039;SDS011;1025;42.686;23.350;2023-02-11T10:25:53;9.40;;;8.57;;
2039;SDS011;1025;42.686;23.350;2023-02-11T10:28:21;10.23;;;7.73;;
2039;SDS011;1025;42.686;23.350;2023-02-11T10:30:51;9.27;;;8.33;;
2039;SDS011;1025;42.686;23.350;2023-02-11T10:33:22;14.93;;;9.73;;
2039;SDS011;1025;42.686;23.350;2023-02-11T10:35:50;8.40;;;7.70;;
2039;SDS011;1025;42.686;23.350;2023-02-11T10:38:20;10.17;;;7.67;;
2039;SDS011;1025;42.686;23.350;2023-02-11T10:40:46;11.60;;;10.40;;
2039;SDS011;1025;42.686;23.350;2023-02-11T10:43:15;30.90;;;12.13;;
2039;SDS011;1025;42.686;23.350;2023-02-11T10:45:43;8.83;;;8.03;;
2039;SDS011;1025;42.686;23.350;2023-02-11T10:51:00;7.10;;;6.47;;
2039;SDS011;1025;42.686;23.350;2023-02-11T10:53:32;12.60;;;8.00;;
2039;SDS011;1025;42.686;23.350;2023-02-11T10:56:00;9.97;;;8.67;;
2039;SDS011;1025;42.686;23.350;2023-02-11T10:58:30;10.13;;;8.73;;
2039;SDS011;1025;42.686;23.350;2023-02-11T11:00:57;7.03;;;6.53;;
2039;SDS011;1025;42.686;23.350;2023-02-11T11:03:25;16.53;;;9.80;;
2039;SDS011;1025;42.686;23.350;2023-02-11T11:05:52;6.37;;;6.03;;
2039;SDS011;1025;42.686;23.350;2023-02-11T11:08:20;8.80;;;7.90;;
2039;SDS011;1025;42.686;23.350;2023-02-11T11:10:47;7.57;;;6.87;;
2039;SDS011;1025;42.686;23.350;2023-02-11T11:13:27;30.37;;;8.83;;
2039;SDS011;1025;42.686;23.350;2023-02-11T11:18:40;17.30;;;6.73;;
2039;SDS011;1025;42.686;23.350;2023-02-11T11:21:11;6.90;;;6.20;;
2039;SDS011;1025;42.686;23.350;2023-02-11T11:23:38;8.30;;;7.60;;
2039;SDS011;1025;42.686;23.350;2023-02-11T11:26:06;15.80;;;6.80;;
2039;SDS011;1025;42.686;23.350;2023-02-11T11:28:35;7.00;;;6.33;;
2039;SDS011;1025;42.686;23.350;2023-02-11T11:31:03;8.80;;;7.80;;
2039;SDS011;1025;42.686;23.350;2023-02-11T11:33:31;11.07;;;7.40;;
2039;SDS011;1025;42.686;23.350;2023-02-11T11:36:02;7.50;;;6.90;;
2039;SDS011;1025;42.686;23.350;2023-02-11T11:38:29;9.23;;;6.53;;
2039;SDS011;1025;42.686;23.350;2023-02-11T11:43:55;9.67;;;6.13;;
2039;SDS011;1025;42.686;23.350;2023-02-11T11:46:23;6.23;;;5.73;;
2039;SDS011;1025;42.686;23.350;2023-02-11T11:48:50;6.53;;;5.93;;
2039;SDS011;1025;42.686;23.350;2023-02-11T11:51:21;13.13;;;7.07;;
2039;SDS011;1025;42.686;23.350;2023-02-11T11:53:50;8.53;;;6.37;;
2039;SDS011;1025;42.686;23.350;2023-02-11T11:56:19;8.07;;;7.13;;
2039;SDS011;1025;42.686;23.350;2023-02-11T11:58:47;8.50;;;6.90;;
2039;SDS011;1025;42.686;23.350;2023-02-11T12:01:16;5.40;;;5.10;;
2039;SDS011;1025;42.686;23.350;2023-02-11T12:06:42;11.63;;;7.30;;
2039;SDS011;1025;42.686;23.350;2023-02-11T12:09:14;9.60;;;7.83;;
2039;SDS011;1025;42.686;23.350;2023-02-11T12:11:55;5.97;;;5.37;;
2039;SDS011;1025;42.686;23.350;2023-02-11T12:14:27;6.80;;;6.30;;
2039;SDS011;1025;42.686;23.350;2023-02-11T12:17:00;4.73;;;4.47;;
2039;SDS011;1025;42.686;23.350;2023-02-11T12:19:33;7.43;;;6.70;;
2039;SDS011;1025;42.686;23.350;2023-02-11T12:22:08;5.30;;;5.00;;
2039;SDS011;1025;42.686;23.350;2023-02-11T12:24:44;6.07;;;5.67;;
2039;SDS011;1025;42.686;23.350;2023-02-11T12:27:15;7.17;;;6.30;;
2039;SDS011;1025;42.686;23.350;2023-02-11T12:29:47;7.60;;;6.90;;
2039;SDS011;1025;42.686;23.350;2023-02-11T12:32:20;6.47;;;4.50;;
2039;SDS011;1025;42.686;23.350;2023-02-11T12:34:52;6.07;;;5.63;;
2039;SDS011;1025;42.686;23.350;2023-02-11T12:37:27;5.57;;;5.27;;
2039;SDS011;1025;42.686;23.350;2023-02-11T12:39:59;5.77;;;5.37;;
2039;SDS011;1025;42.686;23.350;2023-02-11T12:42:40;5.30;;;4.90;;
2039;SDS011;1025;42.686;23.350;2023-02-11T12:45:32;4.77;;;4.40;;
2039;SDS011;1025;42.686;23.350;2023-02-11T12:48:07;5.23;;;4.90;;
2039;SDS011;1025;42.686;23.350;2023-02-11T12:50:39;5.90;;;5.50;;
2039;SDS011;1025;42.686;23.350;2023-02-11T12:53:14;5.53;;;5.03;;
2039;SDS011;1025;42.686;23.350;2023-02-11T12:55:45;5.33;;;4.83;;
2039;SDS011;1025;42.686;23.350;2023-02-11T12:58:14;5.97;;;5.43;;
2039;SDS011;1025;42.686;23.350;2023-02-11T13:00:44;7.07;;;6.50;;
2039;SDS011;1025;42.686;23.350;2023-02-11T13:03:14;7.97;;;6.17;;
2039;SDS011;1025;42.686;23.350;2023-02-11T13:05:42;13.20;;;8.23;;
2039;SDS011;1025;42.686;23.350;2023-02-11T13:08:10;6.03;;;5.53;;
2039;SDS011;1025;42.686;23.350;2023-02-11T13:10:40;8.60;;;6.73;;
2039;SDS011;1025;42.686;23.350;2023-02-11T13:13:11;6.93;;;6.37;;
2039;SDS011;1025;42.686;23.350;2023-02-11T13:15:41;6.23;;;5.73;;
2039;SDS011;1025;42.686;23.350;2023-02-11T13:18:12;6.83;;;6.10;;
2039;SDS011;1025;42.686;23.350;2023-02-11T13:20:39;5.67;;;5.13;;
2039;SDS011;1025;42.686;23.350;2023-02-11T13:23:11;5.73;;;5.37;;
2039;SDS011;1025;42.686;23.350;2023-02-11T13:25:41;8.17;;;6.57;;
2039;SDS011;1025;42.686;23.350;2023-02-11T13:28:14;5.27;;;4.97;;
2039;SDS011;1025;42.686;23.350;2023-02-11T13:30:45;4.57;;;4.27;;
2039;SDS011;1025;42.686;23.350;2023-02-11T13:33:20;5.60;;;4.60;;
2039;SDS011;1025;42.686;23.350;2023-02-11T13:38:39;7.83;;;5.53;;
2039;SDS011;1025;42.686;23.350;2023-02-11T13:41:14;5.67;;;5.20;;
2039;SDS011;1025;42.686;23.350;2023-02-11T13:43:41;6.70;;;6.20;;
2039;SDS011;1025;42.686;23.350;2023-02-11T13:46:09;6.17;;;5.57;;
2039;SDS011;1025;42.686;23.350;2023-02-11T13:48:37;5.87;;;5.50;;
2039;SDS011;1025;42.686;23.350;2023-02-11T13:51:04;4.80;;;4.60;;
2039;SDS011;1025;42.686;23.350;2023-02-11T13:53:41;4.87;;;4.57;;
2039;SDS011;1025;42.686;23.350;2023-02-11T13:56:11;8.70;;;5.40;;
2039;SDS011;1025;42.686;23.350;2023-02-11T13:58:46;6.17;;;5.67;;
2039;SDS011;1025;42.686;23.350;2023-02-11T14:01:19;7.60;;;5.90;;
2039;SDS011;1025;42.686;23.350;2023-02-11T14:04:18;6.30;;;5.07;;
2039;SDS011;1025;42.686;23.350;2023-02-11T14:10:01;6.37;;;5.73;;
2039;SDS011;1025;42.686;23.350;2023-02-11T14:12:32;4.23;;;4.03;;
2039;SDS011;1025;42.686;23.350;2023-02-11T14:15:16;8.97;;;5.57;;
2039;SDS011;1025;42.686;23.350;2023-02-11T14:17:43;4.60;;;4.28;;
2039;SDS011;1025;42.686;23.350;2023-02-11T14:22:51;10.70;;;4.70;;
2039;SDS011;1025;42.686;23.350;2023-02-11T14:25:19;6.30;;;5.40;;
2039;SDS011;1025;42.686;23.350;2023-02-11T14:27:47;5.67;;;4.73;;
2039;SDS011;1025;42.686;23.350;2023-02-11T14:33:15;5.17;;;4.77;;
2039;SDS011;1025;42.686;23.350;2023-02-11T14:35:47;5.53;;;4.90;;
2039;SDS011;1025;42.686;23.350;2023-02-11T14:38:18;6.60;;;6.07;;
2039;SDS011;1025;42.686;23.350;2023-02-11T14:40:48;6.00;;;5.50;;
2039;SDS011;1025;42.686;23.350;2023-02-11T14:43:17;5.60;;;5.10;;
2039;SDS011;1025;42.686;23.350;2023-02-11T14:45:47;7.00;;;5.93;;
2039;SDS011;1025;42.686;23.350;2023-02-11T14:48:19;5.70;;;5.30;;
2039;SDS011;1025;42.686;23.350;2023-02-11T14:50:48;5.70;;;5.20;;
2039;SDS011;1025;42.686;23.350;2023-02-11T14:53:16;7.50;;;6.60;;
2039;SDS011;1025;42.686;23.350;2023-02-11T14:55:43;5.10;;;4.77;;
2039;SDS011;1025;42.686;23.350;2023-02-11T14:58:12;4.60;;;4.40;;
2039;SDS011;1025;42.686;23.350;2023-02-11T15:00:46;6.80;;;4.77;;
2039;SDS011;1025;42.686;23.350;2023-02-11T15:03:24;6.73;;;6.23;;
2039;SDS011;1025;42.686;23.350;2023-02-11T15:05:52;7.60;;;6.30;;
2039;SDS011;1025;42.686;23.350;2023-02-11T15:08:19;5.50;;;5.07;;
2039;SDS011;1025;42.686;23.350;2023-02-11T15:10:46;5.43;;;5.03;;
2039;SDS011;1025;42.686;23.350;2023-02-11T15:13:13;7.93;;;5.97;;
2039;SDS011;1025;42.686;23.350;2023-02-11T15:15:42;8.73;;;5.23;;
2039;SDS011;1025;42.686;23.350;2023-02-11T15:18:12;41.50;;;7.00;;
2039;SDS011;1025;42.686;23.350;2023-02-11T15:20:42;6.23;;;5.87;;
2039;SDS011;1025;42.686;23.350;2023-02-11T15:23:11;5.23;;;4.87;;
2039;SDS011;1025;42.686;23.350;2023-02-11T15:25:43;6.23;;;5.70;;
2039;SDS011;1025;42.686;23.350;2023-02-11T15:28:18;6.90;;;6.30;;
2039;SDS011;1025;42.686;23.350;2023-02-11T15:30:46;5.70;;;5.40;;
2039;SDS011;1025;42.686;23.350;2023-02-11T15:33:19;6.07;;;5.73;;